createdAt,value
2022-11-28T00:00:41.979Z,5.03
2022-11-28T00:03:16.121Z,3.97
2022-11-28T00:05:46.975Z,5.20
2022-11-28T00:08:24.011Z,6.00
2022-11-28T00:10:51.346Z,8.20
2022-11-28T00:13:20.761Z,2.87
2022-11-28T00:16:06.113Z,4.47
2022-11-28T00:18:54.044Z,3.57
2022-11-28T00:21:29.074Z,2.93
2022-11-28T00:23:56.431Z,2.63
2022-11-28T00:26:25.236Z,2.10
2022-11-28T00:28:59.995Z,3.57
2022-11-28T00:31:30.443Z,2.23
2022-11-28T00:33:58.767Z,2.53
2022-11-28T00:36:32.989Z,1.43
2022-11-28T00:39:00.366Z,2.37
2022-11-28T00:41:31.050Z,3.23
2022-11-28T00:44:05.021Z,2.80
2022-11-28T00:46:32.445Z,1.60
2022-11-28T00:49:00.188Z,1.63
2022-11-28T00:51:37.003Z,1.43
2022-11-28T00:54:06.026Z,1.20
2022-11-28T00:56:49.530Z,1.10
2022-11-28T00:59:16.898Z,0.90
2022-11-28T01:01:44.579Z,1.20
2022-11-28T01:04:20.520Z,1.30
2022-11-28T01:06:50.026Z,2.30
2022-11-28T01:09:20.147Z,1.00
2022-11-28T01:11:55.596Z,1.27
2022-11-28T01:14:25.019Z,0.97
2022-11-28T01:16:54.514Z,0.97
2022-11-28T01:19:28.575Z,2.27
2022-11-28T01:22:06.767Z,0.97
2022-11-28T01:24:42.285Z,0.83
2022-11-28T01:27:12.194Z,2.27
2022-11-28T01:29:39.606Z,1.60
2022-11-28T01:32:19.205Z,1.23
2022-11-28T01:34:46.848Z,0.97
2022-11-28T01:37:14.198Z,0.57
2022-11-28T01:39:48.147Z,1.50
2022-11-28T01:42:19.657Z,0.60
2022-11-28T01:44:56.167Z,0.93
2022-11-28T01:47:30.351Z,0.80
2022-11-28T01:50:04.573Z,0.40
2022-11-28T01:52:32.468Z,1.03
2022-11-28T01:55:03.367Z,1.17
2022-11-28T01:57:38.090Z,0.60
2022-11-28T02:00:11.473Z,0.97
2022-11-28T02:02:50.056Z,1.17
2022-11-28T02:05:21.596Z,1.17
2022-11-28T02:07:50.293Z,0.40
2022-11-28T02:10:30.891Z,2.17
2022-11-28T02:13:17.217Z,1.57
2022-11-28T02:16:35.014Z,3.50
2022-11-28T02:19:30.974Z,1.27
2022-11-28T02:22:55.973Z,0.77
2022-11-28T02:26:08.634Z,0.83
2022-11-28T02:28:47.959Z,1.37
2022-11-28T02:31:48.639Z,0.50
2022-11-28T02:34:37.943Z,0.53
2022-11-28T02:37:41.252Z,6.30
2022-11-28T02:40:36.439Z,0.80
2022-11-28T02:43:14.316Z,0.83
2022-11-28T02:46:17.244Z,1.17
2022-11-28T02:48:58.852Z,1.23
2022-11-28T02:52:15.203Z,0.50
2022-11-28T02:54:44.312Z,0.73
2022-11-28T02:57:12.154Z,2.27
2022-11-28T02:59:46.161Z,0.60
2022-11-28T03:02:29.036Z,1.20
2022-11-28T03:05:34.028Z,0.70
2022-11-28T03:08:31.927Z,2.00
2022-11-28T03:11:29.990Z,0.47
2022-11-28T03:14:46.529Z,1.00
2022-11-28T03:17:29.221Z,0.73
2022-11-28T03:20:16.607Z,0.60
2022-11-28T03:23:21.318Z,0.47
2022-11-28T03:26:20.895Z,1.57
2022-11-28T03:29:09.199Z,0.40
2022-11-28T03:31:39.584Z,0.50
2022-11-28T03:34:18.250Z,1.47
2022-11-28T03:36:54.122Z,0.73
2022-11-28T03:39:32.197Z,0.97
2022-11-28T03:42:07.764Z,0.60
2022-11-28T03:45:04.613Z,0.73
2022-11-28T03:47:38.678Z,0.60
2022-11-28T03:50:29.753Z,1.90
2022-11-28T03:53:03.112Z,0.97
2022-11-28T03:55:49.790Z,0.57
2022-11-28T03:58:28.097Z,0.80
2022-11-28T04:01:33.846Z,2.17
2022-11-28T04:04:08.491Z,2.30
2022-11-28T04:07:01.772Z,0.93
2022-11-28T04:09:50.130Z,1.20
2022-11-28T04:12:30.735Z,0.60
2022-11-28T04:15:09.802Z,0.60
2022-11-28T04:17:53.771Z,3.00
2022-11-28T04:20:38.821Z,1.23
2022-11-28T04:23:21.760Z,2.03
2022-11-28T04:25:55.455Z,1.27
2022-11-28T04:28:35.903Z,0.90
2022-11-28T04:31:08.597Z,2.30
2022-11-28T04:33:49.870Z,2.27
2022-11-28T04:36:20.504Z,2.30
2022-11-28T04:39:02.946Z,2.20
2022-11-28T04:41:40.901Z,9.40
2022-11-28T04:44:32.282Z,2.87
2022-11-28T04:46:59.772Z,2.10
2022-11-28T04:49:28.369Z,3.17
2022-11-28T04:52:14.305Z,2.57
2022-11-28T04:55:08.011Z,2.63
2022-11-28T04:57:54.196Z,2.20
2022-11-28T05:00:24.534Z,1.20
2022-11-28T05:03:01.316Z,2.83
2022-11-28T05:05:30.438Z,1.23
2022-11-28T05:07:59.722Z,1.33
2022-11-28T05:10:33.546Z,0.90
2022-11-28T05:13:00.973Z,1.03
2022-11-28T05:15:41.289Z,2.87
2022-11-28T05:18:09.320Z,1.17
2022-11-28T05:20:58.332Z,2.10
2022-11-28T05:23:25.791Z,1.87
2022-11-28T05:25:53.201Z,2.43
2022-11-28T05:28:27.407Z,2.40
2022-11-28T05:31:03.923Z,4.33
2022-11-28T05:33:38.764Z,1.27
2022-11-28T05:36:13.416Z,1.10
2022-11-28T05:38:48.685Z,2.07
2022-11-28T05:41:30.049Z,1.60
2022-11-28T05:44:05.710Z,1.47
2022-11-28T05:46:35.576Z,1.30
2022-11-28T05:49:03.432Z,3.73
2022-11-28T05:51:40.156Z,1.43
2022-11-28T05:54:07.912Z,2.63
2022-11-28T05:56:40.927Z,1.50
2022-11-28T05:59:16.359Z,1.77
2022-11-28T06:01:43.997Z,3.50
2022-11-28T06:04:11.578Z,1.57
2022-11-28T06:06:45.157Z,1.40
2022-11-28T06:09:15.148Z,2.10
2022-11-28T06:11:42.630Z,1.63
2022-11-28T06:14:24.061Z,2.00
2022-11-28T06:16:55.217Z,3.57
2022-11-28T06:19:45.272Z,1.70
2022-11-28T06:22:14.999Z,1.37
2022-11-28T06:24:42.366Z,3.30
2022-11-28T06:27:16.991Z,1.93
2022-11-28T06:29:44.656Z,1.43
2022-11-28T06:32:12.471Z,2.60
2022-11-28T06:34:47.025Z,1.67
2022-11-28T06:37:14.425Z,1.80
2022-11-28T06:39:44.456Z,2.73
2022-11-28T06:42:18.139Z,2.73
2022-11-28T06:44:49.469Z,3.30
2022-11-28T06:47:16.882Z,2.33
2022-11-28T06:49:50.628Z,2.30
2022-11-28T06:52:18.139Z,1.40
2022-11-28T06:54:45.589Z,1.90
2022-11-28T06:57:19.587Z,2.63
2022-11-28T06:59:48.290Z,1.50
2022-11-28T07:02:15.761Z,1.67
2022-11-28T07:04:51.582Z,2.93
2022-11-28T07:07:19.030Z,4.07
2022-11-28T07:09:46.439Z,3.53
2022-11-28T07:12:21.845Z,2.83
2022-11-28T07:14:49.418Z,1.70
2022-11-28T07:17:19.378Z,2.87
2022-11-28T07:19:55.243Z,3.47
2022-11-28T07:22:29.500Z,1.90
2022-11-28T07:25:04.451Z,1.63
2022-11-28T07:27:31.787Z,3.30
2022-11-28T07:29:59.138Z,4.20
2022-11-28T07:32:33.367Z,5.13
2022-11-28T07:35:00.743Z,2.30
2022-11-28T07:37:28.230Z,2.57
2022-11-28T07:40:03.787Z,2.63
2022-11-28T07:42:31.175Z,3.17
2022-11-28T07:44:58.599Z,1.43
2022-11-28T07:47:37.318Z,3.60
2022-11-28T07:50:05.338Z,2.43
2022-11-28T07:52:34.858Z,6.37
2022-11-28T07:55:08.824Z,2.93
2022-11-28T07:57:36.503Z,1.40
2022-11-28T08:00:04.774Z,5.07
2022-11-28T08:02:39.855Z,4.23
2022-11-28T08:05:07.566Z,3.50
2022-11-28T08:07:35.180Z,2.37
2022-11-28T08:10:08.851Z,2.83
2022-11-28T08:12:36.266Z,2.40
2022-11-28T08:15:04.136Z,1.73
2022-11-28T08:17:37.923Z,3.77
2022-11-28T08:20:12.941Z,3.00
2022-11-28T08:22:53.883Z,3.03
2022-11-28T08:25:21.418Z,3.13
2022-11-28T08:27:48.861Z,2.77
2022-11-28T08:30:26.729Z,2.33
2022-11-28T08:32:56.038Z,3.03
2022-11-28T08:35:25.446Z,2.30
2022-11-28T08:38:01.975Z,2.60
2022-11-28T08:40:29.786Z,2.13
2022-11-28T08:43:06.468Z,3.63
2022-11-28T08:45:36.551Z,2.10
2022-11-28T08:48:04.665Z,3.37
2022-11-28T08:50:46.773Z,2.37
2022-11-28T08:53:18.542Z,4.33
2022-11-28T08:55:52.838Z,2.30
2022-11-28T08:58:20.203Z,1.73
2022-11-28T09:01:01.957Z,2.50
2022-11-28T09:03:31.756Z,2.87
2022-11-28T09:06:02.752Z,1.90
2022-11-28T09:08:36.202Z,2.73
2022-11-28T09:11:05.816Z,3.70
2022-11-28T09:13:33.332Z,2.33
2022-11-28T09:16:07.237Z,4.03
2022-11-28T09:18:34.995Z,4.30
2022-11-28T09:21:19.188Z,2.97
2022-11-28T09:23:56.052Z,6.67
2022-11-28T09:26:32.224Z,1.87
2022-11-28T09:29:08.138Z,2.80
2022-11-28T09:31:35.512Z,2.90
2022-11-28T09:34:10.351Z,3.20
2022-11-28T09:36:37.885Z,3.13
2022-11-28T09:39:05.364Z,1.93
2022-11-28T09:41:55.341Z,2.53
2022-11-28T09:44:26.298Z,3.00
2022-11-28T09:47:04.341Z,2.27
2022-11-28T09:49:41.520Z,2.53
2022-11-28T09:52:45.425Z,3.87
2022-11-28T09:55:20.800Z,1.40
2022-11-28T09:57:57.388Z,2.77
2022-11-28T10:00:41.505Z,4.95
2022-11-28T10:03:44.163Z,2.13
2022-11-28T10:06:44.746Z,6.63
2022-11-28T10:09:56.101Z,2.77
2022-11-28T10:13:02.722Z,3.03
2022-11-28T10:15:46.319Z,2.67
2022-11-28T10:18:39.894Z,1.60
2022-11-28T10:21:52.915Z,1.70
2022-11-28T10:24:44.767Z,4.33
2022-11-28T10:27:26.759Z,3.25
2022-11-28T10:30:03.009Z,4.60
2022-11-28T10:32:44.416Z,4.20
2022-11-28T10:35:42.638Z,3.75
2022-11-28T10:38:21.513Z,2.78
2022-11-28T10:41:04.699Z,2.50
2022-11-28T10:43:51.387Z,2.60
2022-11-28T10:46:48.065Z,3.38
2022-11-28T10:49:41.781Z,2.20
2022-11-28T10:52:26.375Z,7.55
2022-11-28T10:55:09.439Z,3.63
2022-11-28T10:57:52.834Z,3.95
2022-11-28T11:00:27.505Z,4.75
2022-11-28T11:02:56.999Z,3.28
2022-11-28T11:05:35.905Z,2.42
2022-11-28T11:08:20.439Z,4.03
2022-11-28T11:11:12.456Z,4.35
2022-11-28T11:14:03.297Z,4.55
2022-11-28T11:17:00.523Z,3.67
2022-11-28T11:19:51.534Z,3.30
2022-11-28T11:22:27.570Z,3.53
2022-11-28T11:25:13.269Z,4.65
2022-11-28T11:28:07.899Z,4.30
2022-11-28T11:30:42.716Z,5.00
2022-11-28T11:33:23.161Z,6.53
2022-11-28T11:35:50.678Z,3.33
2022-11-28T11:38:21.101Z,5.43
2022-11-28T11:40:57.115Z,6.72
2022-11-28T11:43:30.167Z,3.83
2022-11-28T11:46:15.351Z,2.70
2022-11-28T11:48:48.115Z,2.95
2022-11-28T11:51:37.962Z,3.90
2022-11-28T11:54:17.660Z,5.40
2022-11-28T11:57:11.241Z,4.53
2022-11-28T11:59:52.919Z,6.07
2022-11-28T12:02:57.991Z,5.90
2022-11-28T12:05:52.331Z,8.07
2022-11-28T12:08:39.752Z,6.05
2022-11-28T12:11:46.575Z,2.90
2022-11-28T12:14:42.188Z,4.32
2022-11-28T12:17:47.381Z,3.55
2022-11-28T12:20:49.762Z,6.20
2022-11-28T12:23:45.795Z,2.73
2022-11-28T12:26:59.747Z,3.67
2022-11-28T12:29:43.470Z,4.63
2022-11-28T12:32:41.913Z,4.63
2022-11-28T12:35:29.987Z,2.87
2022-11-28T12:38:16.931Z,2.43
2022-11-28T12:41:32.810Z,2.57
2022-11-28T12:44:27.775Z,3.40
2022-11-28T12:47:11.883Z,3.20
2022-11-28T12:50:14.040Z,5.00
2022-11-28T12:53:06.158Z,3.80
2022-11-28T12:56:16.794Z,5.97
2022-11-28T12:59:00.180Z,5.17
2022-11-28T13:02:13.044Z,4.67
2022-11-28T13:05:03.399Z,2.93
2022-11-28T13:08:06.776Z,3.47
2022-11-28T13:10:56.717Z,4.47
2022-11-28T13:13:47.884Z,3.50
2022-11-28T13:16:33.202Z,4.07
2022-11-28T13:19:18.945Z,5.10
2022-11-28T13:22:16.249Z,4.33
2022-11-28T13:25:25.276Z,3.40
2022-11-28T13:28:17.922Z,3.63
2022-11-28T13:30:58.592Z,3.43
2022-11-28T13:33:53.752Z,4.77
2022-11-28T13:40:01.534Z,7.90
2022-11-28T13:43:07.078Z,4.37
2022-11-28T13:45:41.187Z,5.00
2022-11-28T13:51:34.431Z,4.10
2022-11-28T13:54:26.516Z,4.97
2022-11-28T13:57:21.554Z,4.13
2022-11-28T14:00:27.802Z,5.30
2022-11-28T14:03:00.120Z,4.00
2022-11-28T14:05:46.597Z,5.23
2022-11-28T14:08:30.793Z,5.77
2022-11-28T14:11:33.437Z,7.77
2022-11-28T14:14:18.966Z,6.73
2022-11-28T14:17:11.622Z,6.03
2022-11-28T14:19:40.918Z,6.73
2022-11-28T14:22:53.273Z,5.87
2022-11-28T14:25:34.022Z,4.67
2022-11-28T14:28:33.432Z,6.60
2022-11-28T14:31:21.240Z,8.67
2022-11-28T14:33:56.293Z,6.43
2022-11-28T14:36:27.876Z,4.23
2022-11-28T14:39:18.279Z,6.37
2022-11-28T14:42:04.782Z,5.63
2022-11-28T14:45:08.246Z,6.00
2022-11-28T14:47:39.859Z,6.63
2022-11-28T14:50:27.600Z,6.90
2022-11-28T14:53:34.440Z,6.03
2022-11-28T14:56:31.687Z,6.13
2022-11-28T14:59:03.565Z,9.17
2022-11-28T15:01:50.099Z,7.80
2022-11-28T15:04:38.309Z,7.17
2022-11-28T15:07:30.945Z,8.13
2022-11-28T15:10:39.774Z,8.10
2022-11-28T15:13:48.944Z,9.90
2022-11-28T15:16:19.557Z,7.87
2022-11-28T15:19:01.915Z,5.93
2022-11-28T15:21:51.254Z,6.33
2022-11-28T15:24:39.075Z,5.07
2022-11-28T15:27:25.914Z,6.07
2022-11-28T15:30:02.217Z,8.40
2022-11-28T15:32:31.568Z,10.37
2022-11-28T15:35:12.947Z,6.37
2022-11-28T15:37:51.325Z,8.37
2022-11-28T15:40:34.234Z,8.23
2022-11-28T15:43:12.745Z,5.40
2022-11-28T15:45:50.032Z,9.67
2022-11-28T15:48:39.754Z,7.00
2022-11-28T15:51:40.982Z,7.37
2022-11-28T15:54:33.469Z,8.40
2022-11-28T15:57:15.411Z,6.87
2022-11-28T15:59:43.424Z,6.03
2022-11-28T16:02:40.017Z,7.53
2022-11-28T16:05:16.538Z,6.47
2022-11-28T16:07:51.920Z,5.33
2022-11-28T16:10:29.890Z,9.30
2022-11-28T16:13:16.765Z,6.63
2022-11-28T16:15:52.795Z,8.93
2022-11-28T16:18:27.907Z,8.63
2022-11-28T16:21:18.899Z,8.57
2022-11-28T16:23:55.804Z,6.67
2022-11-28T16:26:25.884Z,6.83
2022-11-28T16:29:18.815Z,7.67
2022-11-28T16:31:47.869Z,10.83
2022-11-28T16:34:15.620Z,6.27
2022-11-28T16:36:54.592Z,6.63
2022-11-28T16:39:22.145Z,9.77
2022-11-28T16:42:18.730Z,6.77
2022-11-28T16:44:56.606Z,8.00
2022-11-28T16:47:36.026Z,9.37
2022-11-28T16:50:22.838Z,6.90
2022-11-28T16:53:04.963Z,5.93
2022-11-28T16:55:32.630Z,9.77
2022-11-28T16:58:17.817Z,10.63
2022-11-28T17:01:09.394Z,10.87
2022-11-28T17:04:01.842Z,13.97
2022-11-28T17:06:37.455Z,15.40
2022-11-28T17:09:16.069Z,10.63
2022-11-28T17:12:06.059Z,11.23
2022-11-28T17:14:42.935Z,11.33
2022-11-28T17:17:22.459Z,9.83
2022-11-28T17:20:03.295Z,6.90
2022-11-28T17:22:45.845Z,7.97
2022-11-28T17:25:27.835Z,7.40
2022-11-28T17:27:55.432Z,5.60
2022-11-28T17:30:22.986Z,4.47
2022-11-28T17:32:58.824Z,4.30
2022-11-28T17:35:29.943Z,9.73
2022-11-28T17:37:57.442Z,5.20
2022-11-28T17:40:40.833Z,6.17
2022-11-28T17:43:17.678Z,4.53
2022-11-28T17:45:56.920Z,7.53
2022-11-28T17:48:24.569Z,4.47
2022-11-28T17:50:53.116Z,6.17
2022-11-28T17:53:28.899Z,5.77
2022-11-28T17:55:59.145Z,4.03
2022-11-28T17:58:29.434Z,5.83
2022-11-28T18:01:04.274Z,8.70
2022-11-28T18:03:31.982Z,7.63
2022-11-28T18:05:59.465Z,6.67
2022-11-28T18:08:33.270Z,6.70
2022-11-28T18:11:09.875Z,8.10
2022-11-28T18:13:50.405Z,5.33
2022-11-28T18:16:21.429Z,8.73
2022-11-28T18:18:49.417Z,7.53
2022-11-28T18:21:23.534Z,10.03
2022-11-28T18:23:52.034Z,21.03
2022-11-28T18:26:23.040Z,63.30
2022-11-28T18:28:57.403Z,25.97
2022-11-28T18:31:27.087Z,86.93
2022-11-28T18:34:00.321Z,29.23
2022-11-28T18:36:37.503Z,31.73
2022-11-28T18:39:12.280Z,18.27
2022-11-28T18:41:46.402Z,12.90
2022-11-28T18:44:15.777Z,8.63
2022-11-28T18:46:45.829Z,11.57
2022-11-28T18:49:22.138Z,11.70
2022-11-28T18:51:51.863Z,13.90
2022-11-28T18:54:21.319Z,13.80
2022-11-28T18:56:56.066Z,15.30
2022-11-28T18:59:23.609Z,12.90
2022-11-28T19:01:51.200Z,15.10
2022-11-28T19:04:24.833Z,15.17
2022-11-28T19:06:52.405Z,13.53
2022-11-28T19:09:20.219Z,14.13
2022-11-28T19:11:54.870Z,13.23
2022-11-28T19:14:22.847Z,13.63
2022-11-28T19:16:50.465Z,22.33
2022-11-28T19:19:24.979Z,13.50
2022-11-28T19:21:59.072Z,16.37
2022-11-28T19:24:36.977Z,15.60
2022-11-28T19:27:08.369Z,16.87
2022-11-28T19:29:45.934Z,23.17
2022-11-28T19:32:13.641Z,15.60
2022-11-28T19:34:41.094Z,17.10
2022-11-28T19:37:14.955Z,21.33
2022-11-28T19:39:42.691Z,22.77
2022-11-28T19:42:10.784Z,18.13
2022-11-28T19:44:45.007Z,18.20
2022-11-28T19:47:12.744Z,20.07
2022-11-28T19:49:40.209Z,14.10
2022-11-28T19:52:13.988Z,20.33
2022-11-28T19:54:41.528Z,19.63
2022-11-28T19:57:11.335Z,19.53
2022-11-28T19:59:45.164Z,21.23
2022-11-28T20:02:12.983Z,16.67
2022-11-28T20:04:43.580Z,16.03
2022-11-28T20:07:18.043Z,19.07
2022-11-28T20:09:48.070Z,14.10
2022-11-28T20:12:15.478Z,20.33
2022-11-28T20:14:49.956Z,21.63
2022-11-28T20:17:17.366Z,20.33
2022-11-28T20:19:45.041Z,18.47
2022-11-28T20:22:18.874Z,18.83
2022-11-28T20:24:46.246Z,15.57
2022-11-28T20:27:13.736Z,15.90
2022-11-28T20:29:47.959Z,13.03
2022-11-28T20:32:15.407Z,17.53
2022-11-28T20:34:45.430Z,17.97
2022-11-28T20:37:20.009Z,15.37
2022-11-28T20:39:47.637Z,20.90
2022-11-28T20:42:17.525Z,13.27
2022-11-28T20:44:54.279Z,17.37
2022-11-28T20:47:21.734Z,14.47
2022-11-28T20:49:49.077Z,17.63
2022-11-28T20:52:23.410Z,30.57
2022-11-28T20:54:50.820Z,19.53
2022-11-28T20:57:21.769Z,16.73
2022-11-28T21:00:00.578Z,18.37
2022-11-28T21:02:28.144Z,16.03
2022-11-28T21:04:55.678Z,14.97
2022-11-28T21:07:34.399Z,13.87
2022-11-28T21:10:03.763Z,15.83
2022-11-28T21:12:31.175Z,14.83
2022-11-28T21:15:10.445Z,13.43
2022-11-28T21:17:37.964Z,11.73
2022-11-28T21:20:06.393Z,12.87
2022-11-28T21:22:40.374Z,13.53
2022-11-28T21:25:22.467Z,14.47
2022-11-28T21:27:56.420Z,16.00
2022-11-28T21:30:26.024Z,14.63
2022-11-28T21:32:53.697Z,17.93
2022-11-28T21:35:28.006Z,18.23
2022-11-28T21:37:57.052Z,16.90
2022-11-28T21:40:24.800Z,16.93
2022-11-28T21:42:59.165Z,16.23
2022-11-28T21:45:26.658Z,19.57
2022-11-28T21:47:54.117Z,12.80
2022-11-28T21:50:28.031Z,12.97
2022-11-28T21:52:57.604Z,13.00
2022-11-28T21:55:27.464Z,15.03
2022-11-28T21:58:01.385Z,8.33
2022-11-28T22:00:52.739Z,12.13
2022-11-28T22:03:28.495Z,27.17
2022-11-28T22:06:05.062Z,28.87
2022-11-28T22:08:39.459Z,11.97
2022-11-28T22:11:11.227Z,10.00
2022-11-28T22:13:46.428Z,10.77
2022-11-28T22:16:36.612Z,12.07
2022-11-28T22:19:10.394Z,8.50
2022-11-28T22:21:54.510Z,8.63
2022-11-28T22:24:39.924Z,12.23
2022-11-28T22:27:07.357Z,6.40
2022-11-28T22:29:37.075Z,6.57
2022-11-28T22:32:11.229Z,6.57
2022-11-28T22:34:40.213Z,5.60
2022-11-28T22:37:07.697Z,5.07
2022-11-28T22:39:41.301Z,4.00
2022-11-28T22:42:08.860Z,5.13
2022-11-28T22:44:36.336Z,4.20
2022-11-28T22:47:10.183Z,4.57
2022-11-28T22:49:39.952Z,3.07
2022-11-28T22:52:07.257Z,3.37
2022-11-28T22:54:42.881Z,3.43
2022-11-28T22:57:10.476Z,3.37
2022-11-28T22:59:38.700Z,2.50
2022-11-28T23:02:12.687Z,3.10
2022-11-28T23:04:42.791Z,3.17
2022-11-28T23:07:12.638Z,2.60
2022-11-28T23:09:46.688Z,2.47
2022-11-28T23:12:14.117Z,2.50
2022-11-28T23:14:41.838Z,2.23
2022-11-28T23:17:15.665Z,2.40
2022-11-28T23:19:43.008Z,2.70
2022-11-28T23:22:23.725Z,2.27
2022-11-28T23:24:58.758Z,1.80
2022-11-28T23:27:34.693Z,2.03
2022-11-28T23:30:02.088Z,1.80
2022-11-28T23:32:29.459Z,2.20
2022-11-28T23:35:04.108Z,1.43
2022-11-28T23:37:31.519Z,1.97
2022-11-28T23:39:58.907Z,2.00
2022-11-28T23:42:32.689Z,1.83
2022-11-28T23:45:00.015Z,1.43
2022-11-28T23:47:27.872Z,2.03
2022-11-28T23:50:01.701Z,1.47
2022-11-28T23:52:29.056Z,2.43
2022-11-28T23:54:56.444Z,1.57
2022-11-28T23:57:30.751Z,1.33
